createdAt,value
2023-02-01T00:00:30.085Z,3.4
2023-02-01T00:03:32.072Z,3.4
2023-02-01T00:06:33.996Z,4.4
2023-02-01T00:09:35.975Z,3.4
2023-02-01T00:12:37.925Z,3.2
2023-02-01T00:15:39.915Z,3.2
2023-02-01T00:18:41.980Z,3.8
2023-02-01T00:21:43.816Z,3.4
2023-02-01T00:24:45.852Z,3.4
2023-02-01T00:27:47.767Z,3.5
2023-02-01T00:30:49.736Z,3.6
2023-02-01T00:33:51.691Z,4.1
2023-02-01T00:36:53.626Z,3
2023-02-01T00:39:55.613Z,3.7
2023-02-01T00:42:57.564Z,3.1
2023-02-01T00:45:59.532Z,3.4
2023-02-01T00:49:01.520Z,3.3
2023-02-01T00:49:33.433Z,3.7
2023-02-01T00:50:05.388Z,3.9
2023-02-01T00:50:37.327Z,4.2
2023-02-01T00:51:09.271Z,4
2023-02-01T00:54:11.275Z,3.3
2023-02-01T00:57:13.242Z,3.2
2023-02-01T01:00:15.201Z,3.2
2023-02-01T01:03:17.169Z,3.3
2023-02-01T01:06:19.151Z,3.4
2023-02-01T01:09:21.118Z,3.5
2023-02-01T01:12:23.259Z,3.4
2023-02-01T01:15:25.041Z,3.7
2023-02-01T01:18:27.005Z,3.7
2023-02-01T01:21:28.999Z,3.6
2023-02-01T01:24:30.941Z,4
2023-02-01T01:27:32.910Z,4
2023-02-01T01:30:34.904Z,4.8
2023-02-01T01:33:36.850Z,3.8
2023-02-01T01:36:38.814Z,4.2
2023-02-01T01:39:40.786Z,4
2023-02-01T01:42:42.740Z,4.1
2023-02-01T01:45:44.712Z,4.6
2023-02-01T01:48:46.677Z,4.4
2023-02-01T01:51:48.651Z,3.9
2023-02-01T01:54:50.632Z,3.7
2023-02-01T01:57:52.554Z,4.7
2023-02-01T02:00:54.632Z,4.2
2023-02-01T02:03:56.486Z,4.8
2023-02-01T02:06:58.446Z,4.7
2023-02-01T02:10:01.500Z,4.4
2023-02-01T02:13:02.373Z,4.1
2023-02-01T02:16:04.370Z,4.7
2023-02-01T02:19:06.278Z,4.6
2023-02-01T02:22:08.249Z,4.5
2023-02-01T02:25:10.225Z,4.7
2023-02-01T02:28:12.223Z,5.5
2023-02-01T02:31:14.265Z,6.2
2023-02-01T02:34:16.155Z,5.4
2023-02-01T02:37:18.114Z,6.1
2023-02-01T02:40:20.520Z,5.6
2023-02-01T02:43:22.111Z,5.4
2023-02-01T02:46:24.089Z,5.9
2023-02-01T02:49:26.043Z,5.4
2023-02-01T02:52:28.006Z,5.8
2023-02-01T02:55:29.978Z,6.7
2023-02-01T02:58:31.962Z,6.2
2023-02-01T03:01:33.918Z,6.2
2023-02-01T03:04:35.860Z,6
2023-02-01T03:07:37.820Z,6.2
2023-02-01T03:10:39.793Z,5.9
2023-02-01T03:13:41.762Z,5.8
2023-02-01T03:16:43.825Z,6
2023-02-01T03:19:45.698Z,6.2
2023-02-01T03:22:47.696Z,5.2
2023-02-01T03:25:49.652Z,5.5
2023-02-01T03:28:51.609Z,5.9
2023-02-01T03:31:53.648Z,6.1
2023-02-01T03:34:55.558Z,5.6
2023-02-01T03:37:57.508Z,5
2023-02-01T03:40:59.467Z,5.1
2023-02-01T03:44:01.457Z,5.5
2023-02-01T03:47:03.426Z,5.6
2023-02-01T03:50:05.375Z,4.9
2023-02-01T03:53:07.356Z,4.6
2023-02-01T03:56:09.318Z,4.4
2023-02-01T03:59:11.286Z,4.7
2023-02-01T04:02:13.320Z,3.8
2023-02-01T04:05:15.213Z,4.2
2023-02-01T04:08:17.210Z,4.5
2023-02-01T04:11:19.154Z,4.4
2023-02-01T04:14:21.181Z,4
2023-02-01T04:17:23.093Z,4.3
2023-02-01T04:20:25.366Z,4.4
2023-02-01T04:23:27.050Z,4.8
2023-02-01T04:26:29.002Z,5.6
2023-02-01T04:29:31.019Z,4.6
2023-02-01T04:32:33.126Z,4.7
2023-02-01T04:35:34.933Z,4.3
2023-02-01T04:38:36.885Z,4.7
2023-02-01T04:41:38.854Z,5.2
2023-02-01T04:44:40.847Z,4.2
2023-02-01T04:47:42.804Z,4.2
2023-02-01T04:50:44.874Z,5.2
2023-02-01T04:53:46.847Z,4.9
2023-02-01T04:56:48.808Z,4.6
2023-02-01T04:59:50.782Z,4.3
2023-02-01T05:02:52.750Z,4.2
2023-02-01T05:05:54.829Z,3.9
2023-02-01T05:08:56.669Z,4.3
2023-02-01T05:11:58.633Z,4.4
2023-02-01T05:15:00.616Z,4.6
2023-02-01T05:18:02.574Z,4.9
2023-02-01T05:21:04.535Z,4.4
2023-02-01T05:24:06.518Z,3.9
2023-02-01T05:27:08.473Z,4.4
2023-02-01T05:30:10.440Z,4.4
2023-02-01T05:33:12.394Z,4
2023-02-01T05:36:14.363Z,4
2023-02-01T05:39:16.339Z,4.4
2023-02-01T05:42:18.308Z,3.9
2023-02-01T05:45:20.266Z,4
2023-02-01T05:48:22.224Z,3.8
2023-02-01T05:51:24.174Z,3
2023-02-01T05:54:26.145Z,3.3
2023-02-01T05:57:28.124Z,3.3
2023-02-01T06:00:30.201Z,3.3
2023-02-01T06:03:32.200Z,3.9
2023-02-01T06:06:34.105Z,3.5
2023-02-01T06:09:36.098Z,3.2
2023-02-01T06:12:38.048Z,3.3
2023-02-01T06:15:40.057Z,3.2
2023-02-01T06:18:41.973Z,3.5
2023-02-01T06:21:43.952Z,3.3
2023-02-01T06:24:45.913Z,3.1
2023-02-01T06:27:47.915Z,3
2023-02-01T06:30:49.852Z,3
2023-02-01T06:33:51.763Z,3.2
2023-02-01T06:36:53.785Z,3.7
2023-02-01T06:39:55.712Z,3
2023-02-01T06:42:57.692Z,3.2
2023-02-01T06:45:59.655Z,3.9
2023-02-01T06:49:01.645Z,4.3
2023-02-01T06:52:03.583Z,3.5
2023-02-01T06:55:05.672Z,3.4
2023-02-01T06:58:07.531Z,3.3
2023-02-01T07:01:09.567Z,3
2023-02-01T07:04:11.457Z,3.4
2023-02-01T07:07:13.406Z,3.1
2023-02-01T07:10:15.370Z,3.5
2023-02-01T07:13:17.355Z,3.2
2023-02-01T07:16:19.362Z,2.9
2023-02-01T07:19:21.260Z,3.5
2023-02-01T07:22:23.222Z,2.9
2023-02-01T07:25:25.229Z,3
2023-02-01T07:28:27.208Z,3.6
2023-02-01T07:31:29.158Z,2.8
2023-02-01T07:34:31.099Z,3.8
2023-02-01T07:37:33.084Z,2.9
2023-02-01T07:40:35.076Z,3.3
2023-02-01T07:43:37.013Z,3.5
2023-02-01T07:46:38.973Z,3.1
2023-02-01T07:49:40.939Z,3.1
2023-02-01T07:52:42.902Z,3.4
2023-02-01T07:55:44.869Z,2.7
2023-02-01T07:58:46.841Z,2.2
2023-02-01T08:01:48.809Z,3.3
2023-02-01T08:04:50.817Z,2.6
2023-02-01T08:07:52.794Z,2.5
2023-02-01T08:10:54.755Z,3.2
2023-02-01T08:13:56.778Z,2.8
2023-02-01T08:16:58.701Z,2.9
2023-02-01T08:20:00.673Z,2.6
2023-02-01T08:23:02.640Z,2.7
2023-02-01T08:26:04.591Z,2.8
2023-02-01T08:29:06.569Z,2.9
2023-02-01T08:32:08.560Z,2.8
2023-02-01T08:35:10.502Z,2.5
2023-02-01T08:38:12.466Z,3.5
2023-02-01T08:41:14.480Z,2.7
2023-02-01T08:44:16.442Z,2.8
2023-02-01T08:47:18.397Z,2.8
2023-02-01T08:50:20.453Z,3
2023-02-01T08:53:22.336Z,3.1
2023-02-01T08:56:24.339Z,3
2023-02-01T08:59:27.878Z,2.6
2023-02-01T09:02:28.251Z,3.3
2023-02-01T09:05:40.773Z,2.6
2023-02-01T09:08:32.211Z,2.6
2023-02-01T09:11:34.164Z,3.8
2023-02-01T09:14:36.178Z,2.8
2023-02-01T09:17:38.106Z,2.1
2023-02-01T09:20:40.059Z,2.5
2023-02-01T09:23:42.009Z,2.8
2023-02-01T09:26:44.005Z,2.8
2023-02-01T09:29:45.987Z,2.8
2023-02-01T09:32:47.952Z,2.6
2023-02-01T09:35:49.889Z,2.3
2023-02-01T09:38:53.092Z,2.3
2023-02-01T09:41:54.019Z,2.7
2023-02-01T09:44:55.777Z,3
2023-02-01T09:47:57.757Z,3.2
2023-02-01T09:50:59.721Z,3.4
2023-02-01T09:54:01.685Z,2.4
2023-02-01T09:57:03.637Z,2.2
2023-02-01T10:00:05.621Z,2.7
2023-02-01T10:03:07.599Z,2.5
2023-02-01T10:06:09.532Z,2.5
2023-02-01T10:09:11.509Z,2.6
2023-02-01T10:12:13.483Z,2.8
2023-02-01T10:15:15.432Z,2.7
2023-02-01T10:18:17.409Z,2.8
2023-02-01T10:21:19.379Z,2.5
2023-02-01T10:24:21.417Z,2.4
2023-02-01T10:27:23.305Z,2.9
2023-02-01T10:30:25.599Z,3.5
2023-02-01T10:33:27.266Z,2.4
2023-02-01T10:36:30.405Z,2.8
2023-02-01T10:39:31.179Z,2.4
2023-02-01T10:42:33.165Z,2.6
2023-02-01T10:45:35.101Z,2.3
2023-02-01T10:48:37.097Z,2.2
2023-02-01T10:51:39.038Z,2.6
2023-02-01T10:54:41.003Z,2.5
2023-02-01T10:57:42.987Z,2.3
2023-02-01T11:00:44.942Z,2.5
2023-02-01T11:03:46.915Z,2.5
2023-02-01T11:06:48.861Z,2.4
2023-02-01T11:09:50.845Z,1.9
2023-02-01T11:12:52.810Z,2.6
2023-02-01T11:15:56.158Z,2.4
2023-02-01T11:18:56.802Z,2
2023-02-01T11:21:58.751Z,2.3
2023-02-01T11:25:00.718Z,2.5
2023-02-01T11:28:02.677Z,2.4
2023-02-01T11:31:04.774Z,2.7
2023-02-01T11:34:06.604Z,3
2023-02-01T11:37:08.588Z,2.2
2023-02-01T11:40:10.562Z,2.8
2023-02-01T11:43:12.547Z,2
2023-02-01T11:46:14.572Z,2.5
2023-02-01T11:49:16.473Z,2.2
2023-02-01T11:52:18.467Z,2.9
2023-02-01T11:55:20.426Z,2.2
2023-02-01T11:58:22.397Z,2.3
2023-02-01T12:01:24.368Z,2.4
2023-02-01T12:04:26.347Z,2.4
2023-02-01T12:07:28.289Z,2.4
2023-02-01T12:10:30.251Z,2.6
2023-02-01T12:13:32.231Z,2.5
2023-02-01T12:16:34.203Z,2.4
2023-02-01T12:19:36.166Z,2.4
2023-02-01T12:22:38.088Z,2.1
2023-02-01T12:25:40.053Z,2.3
2023-02-01T12:28:42.033Z,2.3
2023-02-01T12:31:44.335Z,2.3
2023-02-01T12:34:45.955Z,3.1
2023-02-01T12:37:47.974Z,2.6
2023-02-01T12:40:49.918Z,2.7
2023-02-01T12:43:51.882Z,2.2
2023-02-01T12:46:53.856Z,2.3
2023-02-01T12:49:55.800Z,2.4
2023-02-01T12:52:57.773Z,2.6
2023-02-01T12:55:59.749Z,2.3
2023-02-01T12:59:01.725Z,3.2
2023-02-01T13:02:03.691Z,2.6
2023-02-01T13:05:05.653Z,3
2023-02-01T13:08:07.604Z,2.5
2023-02-01T13:11:09.562Z,2.7
2023-02-01T13:14:11.558Z,2.7
2023-02-01T13:17:13.514Z,2.3
2023-02-01T13:20:15.486Z,2.4
2023-02-01T13:23:18.023Z,2.4
2023-02-01T13:26:19.460Z,2
2023-02-01T13:29:21.395Z,2
2023-02-01T13:32:23.382Z,1.8
2023-02-01T13:35:25.754Z,2
2023-02-01T13:38:27.297Z,2.1
2023-02-01T13:41:29.287Z,2.4
2023-02-01T13:44:31.230Z,3.4
2023-02-01T13:47:33.265Z,2.3
2023-02-01T13:50:35.209Z,2.3
2023-02-01T13:53:37.148Z,2.6
2023-02-01T13:56:39.103Z,2.6
2023-02-01T13:59:41.083Z,2.3
2023-02-01T14:02:43.015Z,2.8
2023-02-01T14:05:44.981Z,2.4
2023-02-01T14:08:46.957Z,2
2023-02-01T14:11:48.921Z,2.1
2023-02-01T14:14:50.919Z,2.4
2023-02-01T14:17:52.921Z,2.2
2023-02-01T14:20:54.850Z,2.8
2023-02-01T14:23:56.807Z,2.1
2023-02-01T14:26:58.818Z,1.7
2023-02-01T14:30:00.818Z,2.1
2023-02-01T14:33:02.701Z,2.2
2023-02-01T14:36:04.686Z,1.7
2023-02-01T14:39:06.620Z,1.9
2023-02-01T14:42:08.625Z,1.5
2023-02-01T14:45:10.608Z,2.1
2023-02-01T14:48:12.554Z,2
2023-02-01T14:51:14.517Z,1.4
2023-02-01T14:54:16.469Z,2.1
2023-02-01T14:57:18.446Z,2.1
2023-02-01T15:00:20.414Z,1.8
2023-02-01T15:03:22.381Z,1.9
2023-02-01T15:06:24.502Z,2.1
2023-02-01T15:09:26.307Z,1.8
2023-02-01T15:12:28.269Z,2
2023-02-01T15:15:30.263Z,2
2023-02-01T15:18:32.319Z,2.4
2023-02-01T15:21:34.242Z,2.1
2023-02-01T15:24:36.167Z,2.1
2023-02-01T15:27:38.120Z,2.3
2023-02-01T15:30:40.100Z,2.4
2023-02-01T15:33:42.049Z,1.8
2023-02-01T15:36:53.486Z,1.8
2023-02-01T15:39:46.088Z,2
2023-02-01T15:42:48.073Z,1.9
2023-02-01T15:45:50.052Z,1.6
2023-02-01T15:48:51.989Z,1.6
2023-02-01T15:51:53.959Z,1.6
2023-02-01T15:54:55.941Z,2.1
2023-02-01T15:58:00.153Z,2.1
2023-02-01T16:00:59.861Z,1.8
2023-02-01T16:04:01.803Z,1.8
2023-02-01T16:07:03.765Z,2.6
2023-02-01T16:10:05.829Z,1.9
2023-02-01T16:13:07.760Z,1.8
2023-02-01T16:16:09.710Z,1.9
2023-02-01T16:19:11.631Z,1.9
2023-02-01T16:22:13.596Z,1.5
2023-02-01T16:25:15.574Z,2.2
2023-02-01T16:28:17.521Z,1.3
2023-02-01T16:31:19.598Z,1.9
2023-02-01T16:34:21.444Z,1.6
2023-02-01T16:37:23.450Z,1.7
2023-02-01T16:40:25.387Z,1.6
2023-02-01T16:43:27.332Z,1.8
2023-02-01T16:46:29.497Z,1.4
2023-02-01T16:49:31.473Z,2.2
2023-02-01T16:52:33.426Z,2.1
2023-02-01T16:55:35.386Z,1.9
2023-02-01T16:58:37.346Z,2
2023-02-01T17:01:39.344Z,1.8
2023-02-01T17:04:41.433Z,1.7
2023-02-01T17:07:43.247Z,1.8
2023-02-01T17:10:45.216Z,1.7
2023-02-01T17:13:47.177Z,1.8
2023-02-01T17:16:49.254Z,1.6
2023-02-01T17:19:51.105Z,2.1
2023-02-01T17:22:53.070Z,1.8
2023-02-01T17:25:55.037Z,1.5
2023-02-01T17:28:57.315Z,2.1
2023-02-01T17:31:59.070Z,2.2
2023-02-01T17:35:00.990Z,2.1
2023-02-01T17:38:02.956Z,2.2
2023-02-01T17:41:04.932Z,1.6
2023-02-01T17:44:06.878Z,1.8
2023-02-01T17:47:08.830Z,1.6
2023-02-01T17:50:10.843Z,1.7
2023-02-01T17:53:12.814Z,1.9
2023-02-01T17:56:14.774Z,2.1
2023-02-01T17:59:16.744Z,1.7
2023-02-01T18:02:18.785Z,1.7
2023-02-01T18:05:20.814Z,2.4
2023-02-01T18:08:23.273Z,1.8
2023-02-01T18:11:25.244Z,1.6
2023-02-01T18:14:27.242Z,2
2023-02-01T18:17:29.227Z,2
2023-02-01T18:20:31.181Z,2.2
2023-02-01T18:23:33.147Z,2.1
2023-02-01T18:26:35.191Z,2.4
2023-02-01T18:29:37.073Z,1.8
2023-02-01T18:32:39.044Z,2
2023-02-01T18:35:41.012Z,2.2
2023-02-01T18:38:43.006Z,1.8
2023-02-01T18:41:44.948Z,1.7
2023-02-01T18:44:46.922Z,2
2023-02-01T18:47:48.887Z,2.1
2023-02-01T18:50:50.843Z,2
2023-02-01T18:53:52.830Z,1.9
2023-02-01T18:56:55.305Z,1.7
2023-02-01T18:59:56.773Z,1.8
2023-02-01T19:02:58.787Z,1.8
2023-02-01T19:06:00.770Z,2.4
2023-02-01T19:09:02.800Z,1.6
2023-02-01T19:12:04.794Z,1.9
2023-02-01T19:15:06.746Z,2.2
2023-02-01T19:18:08.721Z,1.6
2023-02-01T19:21:10.679Z,1.7
2023-02-01T19:24:12.650Z,2.1
2023-02-01T19:27:14.625Z,1.6
2023-02-01T19:30:16.580Z,2.6
2023-02-01T19:33:18.561Z,2.5
2023-02-01T19:36:20.579Z,2.5
2023-02-01T19:39:22.530Z,2.4
2023-02-01T19:42:24.510Z,2.2
2023-02-01T19:45:26.738Z,1.8
2023-02-01T19:48:30.986Z,1.9
2023-02-01T19:51:30.379Z,2.5
2023-02-01T19:54:32.341Z,2.6
2023-02-01T19:57:34.493Z,2.4
2023-02-01T20:00:35.398Z,2.3
2023-02-01T20:03:37.391Z,2.1
2023-02-01T20:06:39.341Z,1.9
2023-02-01T20:09:41.307Z,1.9
2023-02-01T20:12:43.285Z,1.9
2023-02-01T20:15:45.238Z,1.7
2023-02-01T20:18:47.205Z,2.1
2023-02-01T20:21:49.155Z,1.9
2023-02-01T20:24:51.137Z,2.1
2023-02-01T20:27:54.089Z,1.5
2023-02-01T20:30:55.953Z,2.1
2023-02-01T20:33:57.902Z,1.8
2023-02-01T20:36:59.846Z,1.7
2023-02-01T20:40:01.804Z,1.9
2023-02-01T20:43:03.774Z,2
2023-02-01T20:46:05.750Z,1.8
2023-02-01T20:49:07.719Z,1.9
2023-02-01T20:52:09.678Z,2.5
2023-02-01T20:55:11.723Z,2.3
2023-02-01T20:58:13.619Z,2
2023-02-01T21:01:15.666Z,1.7
2023-02-01T21:04:17.572Z,2.1
2023-02-01T21:07:19.519Z,2
2023-02-01T21:10:21.561Z,2.3
2023-02-01T21:13:23.460Z,2.3
2023-02-01T21:16:25.448Z,2
2023-02-01T21:19:27.394Z,2.2
2023-02-01T21:22:29.464Z,1.9
2023-02-01T21:25:31.440Z,2.3
2023-02-01T21:28:33.396Z,1.5
2023-02-01T21:31:35.439Z,2.2
2023-02-01T21:34:37.341Z,2
2023-02-01T21:37:39.295Z,2.2
2023-02-01T21:40:41.260Z,2.7
2023-02-01T21:43:43.231Z,2.4
2023-02-01T21:46:45.185Z,2
2023-02-01T21:49:47.156Z,2
2023-02-01T21:52:49.132Z,1.9
2023-02-01T21:55:51.101Z,1.9
2023-02-01T21:58:53.088Z,2
2023-02-01T22:01:55.052Z,2.4
2023-02-01T22:04:56.998Z,2.3
2023-02-01T22:07:58.961Z,2.5
2023-02-01T22:11:00.921Z,1.5
2023-02-01T22:14:02.902Z,1.7
2023-02-01T22:17:04.864Z,1.8
2023-02-01T22:20:06.821Z,1.7
2023-02-01T22:23:08.873Z,2
2023-02-01T22:26:10.823Z,1.7
2023-02-01T22:29:12.759Z,1.7
2023-02-01T22:32:14.743Z,1.9
2023-02-01T22:35:16.706Z,1.7
2023-02-01T22:38:18.669Z,1.3
2023-02-01T22:41:20.605Z,1.7
2023-02-01T22:44:22.578Z,1.4
2023-02-01T22:47:24.557Z,2.1
2023-02-01T22:50:26.515Z,2.1
2023-02-01T22:53:28.471Z,1.7
2023-02-01T22:56:30.431Z,1.6
2023-02-01T22:59:32.444Z,1.8
2023-02-01T23:02:34.612Z,1.4
2023-02-01T23:05:36.365Z,1.5
2023-02-01T23:08:38.339Z,1.6
2023-02-01T23:11:40.312Z,2.1
2023-02-01T23:14:42.271Z,1.6
2023-02-01T23:17:44.229Z,1.7
2023-02-01T23:20:46.186Z,2.2
2023-02-01T23:23:48.161Z,1.6
2023-02-01T23:26:50.181Z,1.5
2023-02-01T23:29:52.088Z,1.7
2023-02-01T23:32:54.034Z,2.6
2023-02-01T23:35:56.000Z,1.6
2023-02-01T23:38:57.972Z,1.7
2023-02-01T23:41:59.949Z,1.5
2023-02-01T23:45:01.970Z,1.8
2023-02-01T23:48:04.035Z,1.5
2023-02-01T23:51:05.996Z,1.8
2023-02-01T23:54:07.946Z,1.4
2023-02-01T23:57:09.923Z,1.6
